Terminal Aerodrome Forecast
Issued by NWS

Home | Current Version | Previous Version | Text Only | Print | Product List | Glossary On
Versions: 1 2 3 4 5 6 7 8 9 10 11 12
000
FTUS42 KILM 251720
TAFCRE
TAF
KCRE 251720Z 2518/2618 24005KT P6SM VCSH BKN035
      TEMPO 2518/2522 SCT035
     FM260300 22005KT P6SM BKN045 PROB30 2603/2608 4SM -TSRA
      OVC015CB
     FM260800 29005KT P6SM BKN035 PROB30 2608/2611 4SM -TSRA
      OVC015CB
     FM261100 36005KT P6SM BKN025 PROB30 2611/2612 4SM -TSRA
      OVC015CB
     FM261600 07006KT P6SM BKN045=

USA.gov is the U.S. government's official web portal to all federal, state and local government web resources and services.